createdAt,value
2018-03-18T00:01:44.017Z,9.00
2018-03-18T00:04:12.434Z,11.23
2018-03-18T00:06:40.816Z,12.47
2018-03-18T00:09:09.200Z,10.07
2018-03-18T00:11:37.592Z,8.63
2018-03-18T00:14:05.975Z,10.10
2018-03-18T00:16:34.396Z,10.40
2018-03-18T00:19:02.776Z,10.60
2018-03-18T00:21:31.155Z,10.87
2018-03-18T00:23:59.557Z,8.57
2018-03-18T00:26:27.946Z,8.50
2018-03-18T00:28:56.332Z,9.17
2018-03-18T00:31:24.702Z,12.37
2018-03-18T00:33:53.065Z,9.47
2018-03-18T00:36:21.437Z,11.23
2018-03-18T00:38:49.832Z,12.27
2018-03-18T00:41:18.212Z,10.60
2018-03-18T00:43:46.642Z,13.47
2018-03-18T00:46:15.019Z,14.13
2018-03-18T00:48:43.403Z,9.20
2018-03-18T00:51:11.863Z,10.03
2018-03-18T00:53:40.991Z,11.20
2018-03-18T00:56:09.389Z,11.93
2018-03-18T00:58:37.774Z,9.47
2018-03-18T01:01:06.333Z,11.03
2018-03-18T01:03:34.694Z,11.07
2018-03-18T01:06:03.083Z,10.23
2018-03-18T01:08:32.218Z,9.67
2018-03-18T01:11:00.594Z,14.37
2018-03-18T01:13:28.979Z,12.33
2018-03-18T01:15:57.343Z,9.47
2018-03-18T01:18:25.780Z,10.40
2018-03-18T01:20:54.165Z,9.30
2018-03-18T01:23:22.550Z,11.80
2018-03-18T01:25:50.932Z,12.93
2018-03-18T01:28:19.278Z,9.77
2018-03-18T01:30:48.412Z,12.03
2018-03-18T01:33:16.762Z,9.50
2018-03-18T01:35:45.163Z,11.57
2018-03-18T01:38:13.537Z,9.63
2018-03-18T01:40:41.924Z,9.67
2018-03-18T01:43:10.360Z,8.53
2018-03-18T01:45:38.722Z,8.90
2018-03-18T01:48:07.893Z,10.63
2018-03-18T01:50:36.260Z,11.07
2018-03-18T01:53:16.505Z,9.50
2018-03-18T01:55:44.863Z,8.70
2018-03-18T01:58:13.237Z,10.00
2018-03-18T02:00:41.623Z,11.50
2018-03-18T02:03:09.978Z,12.17
2018-03-18T02:05:39.138Z,12.87
2018-03-18T02:08:07.520Z,12.23
2018-03-18T02:10:35.905Z,13.33
2018-03-18T02:13:04.295Z,12.17
2018-03-18T02:15:33.461Z,10.67
2018-03-18T02:18:01.845Z,9.97
2018-03-18T02:20:30.250Z,10.63
2018-03-18T02:22:59.412Z,12.33
2018-03-18T02:25:27.809Z,11.43
2018-03-18T02:27:56.185Z,8.20
2018-03-18T02:30:24.570Z,14.63
2018-03-18T02:32:53.722Z,9.43
2018-03-18T02:35:22.080Z,13.13
2018-03-18T02:37:50.500Z,12.43
2018-03-18T02:40:18.866Z,10.70
2018-03-18T02:42:47.230Z,10.77
2018-03-18T02:45:15.629Z,12.50
2018-03-18T02:47:43.986Z,11.63
2018-03-18T02:50:12.383Z,11.53
2018-03-18T02:52:40.758Z,9.50
2018-03-18T02:55:09.156Z,12.07
2018-03-18T02:57:37.578Z,11.50
2018-03-18T03:00:05.978Z,11.20
2018-03-18T03:02:34.379Z,10.63
2018-03-18T03:05:02.738Z,10.37
2018-03-18T03:07:31.187Z,9.90
2018-03-18T03:09:59.572Z,9.67
2018-03-18T03:12:27.946Z,11.17
2018-03-18T03:14:56.369Z,10.57
2018-03-18T03:17:24.754Z,10.23
2018-03-18T03:19:53.157Z,10.47
2018-03-18T03:22:22.351Z,12.33
2018-03-18T03:24:51.548Z,13.77
2018-03-18T03:27:20.668Z,13.00
2018-03-18T03:29:49.044Z,11.53
2018-03-18T03:32:22.103Z,8.97
2018-03-18T03:34:50.463Z,10.30
2018-03-18T03:37:18.826Z,10.93
2018-03-18T03:39:47.254Z,13.27
2018-03-18T03:42:15.640Z,11.70
2018-03-18T03:44:43.999Z,11.37
2018-03-18T03:47:13.147Z,11.13
2018-03-18T03:49:41.542Z,10.83
2018-03-18T03:52:09.915Z,9.57
2018-03-18T03:54:38.281Z,13.03
2018-03-18T03:57:06.678Z,10.90
2018-03-18T03:59:35.036Z,13.97
2018-03-18T04:02:03.464Z,10.83
2018-03-18T04:04:32.582Z,11.87
2018-03-18T04:07:00.987Z,14.00
2018-03-18T04:09:29.344Z,12.17
2018-03-18T04:11:58.491Z,15.70
2018-03-18T04:14:26.934Z,14.50
2018-03-18T04:16:55.292Z,11.47
2018-03-18T04:19:23.664Z,10.87
2018-03-18T04:21:52.042Z,9.67
2018-03-18T04:24:20.414Z,13.53
2018-03-18T04:26:48.824Z,9.90
2018-03-18T04:29:17.190Z,12.63
2018-03-18T04:31:45.591Z,12.50
2018-03-18T04:34:13.972Z,12.07
2018-03-18T04:36:42.330Z,11.70
2018-03-18T04:39:10.704Z,13.97
2018-03-18T04:41:39.084Z,12.43
2018-03-18T04:44:07.463Z,9.97
2018-03-18T04:46:35.810Z,13.40
2018-03-18T04:49:04.206Z,13.37
2018-03-18T04:51:32.596Z,12.57
2018-03-18T04:54:01.014Z,14.53
2018-03-18T04:56:29.383Z,12.87
2018-03-18T04:58:57.739Z,15.57
2018-03-18T05:01:26.146Z,12.67
2018-03-18T05:03:54.510Z,12.27
2018-03-18T05:06:22.901Z,13.87
2018-03-18T05:08:51.270Z,12.03
2018-03-18T05:11:19.640Z,11.27
2018-03-18T05:13:48.036Z,11.80
2018-03-18T05:16:16.382Z,9.60
2018-03-18T05:18:44.784Z,10.30
2018-03-18T05:21:13.208Z,11.47
2018-03-18T05:23:41.590Z,15.17
2018-03-18T05:26:09.938Z,12.17
2018-03-18T05:28:39.075Z,14.77
2018-03-18T05:31:07.453Z,13.73
2018-03-18T05:33:35.823Z,13.27
2018-03-18T05:36:04.186Z,13.13
2018-03-18T05:38:32.637Z,11.53
2018-03-18T05:41:00.983Z,10.93
2018-03-18T05:43:29.344Z,14.77
2018-03-18T05:45:57.741Z,13.07
2018-03-18T05:48:26.114Z,12.40
2018-03-18T05:50:54.535Z,13.50
2018-03-18T05:53:23.673Z,11.33
2018-03-18T05:55:52.040Z,10.97
2018-03-18T05:58:20.439Z,15.53
2018-03-18T06:00:48.780Z,15.93
2018-03-18T06:03:17.154Z,14.23
2018-03-18T06:05:45.525Z,12.03
2018-03-18T06:08:14.654Z,13.27
2018-03-18T06:10:43.025Z,12.77
2018-03-18T06:13:11.407Z,12.77
2018-03-18T06:15:39.760Z,12.37
2018-03-18T06:18:08.190Z,10.13
2018-03-18T06:20:36.561Z,10.63
2018-03-18T06:23:04.938Z,13.63
2018-03-18T06:25:33.333Z,11.73
2018-03-18T06:28:01.706Z,10.60
2018-03-18T06:30:30.072Z,14.23
2018-03-18T06:32:58.435Z,13.17
2018-03-18T06:35:26.786Z,10.23
2018-03-18T06:37:55.199Z,13.03
2018-03-18T06:40:23.567Z,12.37
2018-03-18T06:42:51.974Z,13.07
2018-03-18T06:45:20.378Z,10.83
2018-03-18T06:47:49.508Z,11.03
2018-03-18T06:50:17.885Z,12.73
2018-03-18T06:52:46.248Z,13.40
2018-03-18T06:55:14.661Z,9.73
2018-03-18T06:57:43.013Z,11.73
2018-03-18T07:00:11.376Z,12.40
2018-03-18T07:02:40.253Z,11.50
2018-03-18T07:05:09.379Z,12.60
2018-03-18T07:07:37.765Z,14.43
2018-03-18T07:10:06.910Z,9.23
2018-03-18T07:12:35.249Z,11.93
2018-03-18T07:15:03.674Z,12.80
2018-03-18T07:17:32.831Z,9.73
2018-03-18T07:20:01.266Z,15.57
2018-03-18T07:22:30.368Z,9.53
2018-03-18T07:24:58.766Z,15.03
2018-03-18T07:27:27.192Z,12.03
2018-03-18T07:29:56.335Z,10.47
2018-03-18T07:32:25.475Z,7.73
2018-03-18T07:34:53.854Z,10.33
2018-03-18T07:37:22.262Z,9.13
2018-03-18T07:39:51.387Z,8.80
2018-03-18T07:42:19.769Z,13.10
2018-03-18T07:44:48.175Z,11.23
2018-03-18T07:47:16.569Z,12.40
2018-03-18T07:49:44.968Z,14.30
2018-03-18T07:52:13.324Z,10.70
2018-03-18T07:54:42.497Z,10.70
2018-03-18T07:57:10.841Z,10.33
2018-03-18T07:59:39.217Z,10.03
2018-03-18T08:02:07.595Z,9.47
2018-03-18T08:04:35.984Z,8.60
2018-03-18T08:07:04.353Z,8.93
2018-03-18T08:09:32.759Z,11.60
2018-03-18T08:12:01.172Z,10.13
2018-03-18T08:14:29.536Z,10.73
2018-03-18T08:16:57.903Z,11.50
2018-03-18T08:19:26.294Z,11.07
2018-03-18T08:21:54.658Z,8.70
2018-03-18T08:24:23.044Z,10.20
2018-03-18T08:26:51.426Z,8.90
2018-03-18T08:29:19.792Z,11.70
2018-03-18T08:31:48.213Z,10.87
2018-03-18T08:34:16.561Z,9.57
2018-03-18T08:36:44.960Z,10.87
2018-03-18T08:39:13.346Z,11.53
2018-03-18T08:41:41.740Z,8.63
2018-03-18T08:44:10.095Z,9.83
2018-03-18T08:46:38.486Z,11.23
2018-03-18T08:49:06.849Z,9.17
2018-03-18T08:51:36.007Z,10.40
2018-03-18T08:54:04.407Z,10.23
2018-03-18T08:56:33.567Z,8.80
2018-03-18T08:59:02.005Z,10.43
2018-03-18T09:01:30.394Z,9.90
2018-03-18T09:03:58.749Z,9.10
2018-03-18T09:06:28.638Z,10.37
2018-03-18T09:08:57.032Z,8.30
2018-03-18T09:11:26.214Z,10.03
2018-03-18T09:13:54.557Z,8.50
2018-03-18T09:16:22.941Z,11.93
2018-03-18T09:18:51.327Z,14.40
2018-03-18T09:21:19.765Z,7.33
2018-03-18T09:23:48.129Z,10.57
2018-03-18T09:26:17.261Z,8.30
2018-03-18T09:28:46.029Z,8.83
2018-03-18T09:31:14.625Z,8.60
2018-03-18T09:33:44.101Z,9.03
2018-03-18T09:36:13.444Z,7.27
2018-03-18T09:38:43.254Z,6.50
2018-03-18T09:41:18.109Z,9.63
2018-03-18T09:43:46.757Z,10.33
2018-03-18T09:46:15.099Z,8.53
2018-03-18T09:48:44.328Z,8.13
2018-03-18T09:51:12.731Z,9.83
2018-03-18T09:53:41.570Z,7.53
2018-03-18T09:56:09.967Z,10.00
2018-03-18T09:58:38.317Z,8.30
2018-03-18T10:01:07.473Z,9.90
2018-03-18T10:03:35.834Z,9.03
2018-03-18T10:06:05.700Z,7.03
2018-03-18T10:08:35.432Z,8.97
2018-03-18T10:11:03.820Z,8.67
2018-03-18T10:13:33.499Z,10.00
2018-03-18T10:16:01.907Z,9.60
2018-03-18T10:18:30.568Z,8.17
2018-03-18T10:20:59.728Z,9.07
2018-03-18T10:23:28.128Z,7.50
2018-03-18T10:25:56.602Z,7.30
2018-03-18T10:28:30.175Z,8.87
2018-03-18T10:31:02.556Z,7.83
2018-03-18T10:33:31.679Z,9.63
2018-03-18T10:36:00.244Z,9.37
2018-03-18T10:38:29.280Z,7.97
2018-03-18T10:40:57.691Z,7.30
2018-03-18T10:43:26.026Z,8.47
2018-03-18T10:45:54.420Z,7.43
2018-03-18T10:48:22.750Z,9.17
2018-03-18T10:50:51.111Z,9.73
2018-03-18T10:53:19.516Z,6.80
2018-03-18T10:55:48.660Z,7.90
2018-03-18T10:58:17.033Z,6.57
2018-03-18T11:00:51.377Z,9.27
2018-03-18T11:03:19.768Z,9.80
2018-03-18T11:05:48.178Z,10.87
2018-03-18T11:08:18.508Z,7.93
2018-03-18T11:10:47.130Z,6.87
2018-03-18T11:13:15.587Z,7.10
2018-03-18T11:15:43.952Z,8.63
2018-03-18T11:18:12.339Z,9.03
2018-03-18T11:20:40.732Z,7.47
2018-03-18T11:23:09.189Z,8.43
2018-03-18T11:25:37.549Z,7.37
2018-03-18T11:28:05.896Z,7.40
2018-03-18T11:30:34.309Z,7.40
2018-03-18T11:33:02.672Z,8.83
2018-03-18T11:35:31.779Z,7.90
2018-03-18T11:38:00.262Z,9.80
2018-03-18T11:40:28.611Z,8.90
2018-03-18T11:42:57.749Z,5.87
2018-03-18T11:45:26.114Z,9.63
2018-03-18T11:47:55.631Z,8.87
2018-03-18T11:50:23.973Z,7.83
2018-03-18T11:52:53.172Z,7.67
2018-03-18T11:55:22.303Z,9.17
2018-03-18T11:57:50.656Z,8.90
2018-03-18T12:00:19.010Z,8.07
2018-03-18T12:02:47.376Z,7.40
2018-03-18T12:05:16.336Z,7.70
2018-03-18T12:07:45.785Z,8.13
2018-03-18T12:10:15.732Z,8.23
2018-03-18T12:12:48.264Z,9.17
2018-03-18T12:15:18.091Z,7.23
2018-03-18T12:17:52.957Z,7.27
2018-03-18T12:20:21.381Z,7.83
2018-03-18T12:22:49.770Z,8.73
2018-03-18T12:25:18.116Z,7.97
2018-03-18T12:27:46.576Z,8.30
2018-03-18T12:30:14.927Z,7.33
2018-03-18T12:32:43.270Z,6.90
2018-03-18T12:35:11.651Z,6.50
2018-03-18T12:37:40.022Z,8.20
2018-03-18T12:40:31.518Z,10.37
2018-03-18T12:43:11.802Z,7.97
2018-03-18T12:45:40.158Z,5.13
2018-03-18T12:48:08.510Z,6.40
2018-03-18T12:50:36.898Z,7.37
2018-03-18T12:53:07.309Z,8.00
2018-03-18T12:55:35.654Z,8.13
2018-03-18T12:58:04.770Z,7.67
2018-03-18T13:00:33.152Z,9.07
2018-03-18T13:03:01.517Z,7.00
2018-03-18T13:05:29.909Z,8.17
2018-03-18T13:07:58.286Z,8.60
2018-03-18T13:10:26.658Z,6.00
2018-03-18T13:12:55.014Z,6.83
2018-03-18T13:15:24.172Z,7.60
2018-03-18T13:17:52.536Z,6.73
2018-03-18T13:20:20.869Z,6.23
2018-03-18T13:22:49.293Z,5.97
2018-03-18T13:25:17.652Z,6.90
2018-03-18T13:27:46.011Z,6.67
2018-03-18T13:30:14.387Z,6.83
2018-03-18T13:32:42.752Z,5.87
2018-03-18T13:35:11.946Z,9.23
2018-03-18T13:37:41.087Z,10.83
2018-03-18T13:40:09.433Z,8.47
2018-03-18T13:42:38.794Z,8.80
2018-03-18T13:45:07.169Z,6.93
2018-03-18T13:47:35.565Z,7.77
2018-03-18T13:50:03.936Z,8.90
2018-03-18T13:52:32.279Z,10.10
2018-03-18T13:55:00.681Z,7.00
2018-03-18T13:57:29.052Z,7.27
2018-03-18T13:59:57.409Z,7.60
2018-03-18T14:02:25.790Z,5.60
2018-03-18T14:04:54.168Z,7.47
2018-03-18T14:07:22.522Z,7.00
2018-03-18T14:09:50.948Z,8.50
2018-03-18T14:12:19.329Z,9.07
2018-03-18T14:14:47.675Z,6.17
2018-03-18T14:17:16.065Z,7.63
2018-03-18T14:19:44.438Z,8.03
2018-03-18T14:22:12.817Z,7.83
2018-03-18T14:24:41.156Z,7.33
2018-03-18T14:27:09.567Z,6.23
2018-03-18T14:29:37.936Z,6.50
2018-03-18T14:32:06.297Z,5.53
2018-03-18T14:34:35.452Z,6.83
2018-03-18T14:37:03.837Z,6.80
2018-03-18T14:39:32.963Z,6.23
2018-03-18T14:42:01.339Z,6.93
2018-03-18T14:44:29.715Z,5.40
2018-03-18T14:46:58.078Z,9.63
2018-03-18T14:49:26.493Z,5.97
2018-03-18T14:51:54.910Z,8.03
2018-03-18T14:54:23.238Z,5.90
2018-03-18T14:56:51.600Z,7.20
2018-03-18T14:59:20.013Z,7.90
2018-03-18T15:01:48.362Z,6.23
2018-03-18T15:04:16.739Z,7.77
2018-03-18T15:06:45.069Z,8.50
2018-03-18T15:09:13.451Z,6.73
2018-03-18T15:11:41.788Z,5.47
2018-03-18T15:14:10.146Z,10.10
2018-03-18T15:16:38.519Z,7.50
2018-03-18T15:19:06.905Z,7.27
2018-03-18T15:21:35.286Z,5.40
2018-03-18T15:24:03.664Z,6.17
2018-03-18T15:26:32.066Z,6.63
2018-03-18T15:29:00.436Z,7.20
2018-03-18T15:31:28.817Z,5.70
2018-03-18T15:33:57.206Z,6.87
2018-03-18T15:36:25.556Z,5.60
2018-03-18T15:38:53.951Z,5.80
2018-03-18T15:41:22.309Z,7.57
2018-03-18T15:43:50.665Z,7.50
2018-03-18T15:46:19.845Z,6.87
2018-03-18T15:48:48.214Z,7.83
2018-03-18T15:51:16.566Z,6.17
2018-03-18T15:53:44.948Z,5.60
2018-03-18T15:56:13.339Z,6.90
2018-03-18T15:58:41.708Z,5.43
2018-03-18T16:01:10.053Z,8.73
2018-03-18T16:03:38.426Z,6.13
2018-03-18T16:06:06.759Z,7.10
2018-03-18T16:08:35.118Z,7.67
2018-03-18T16:11:03.509Z,5.67
2018-03-18T16:13:31.893Z,8.20
2018-03-18T16:16:01.042Z,6.03
2018-03-18T16:18:29.418Z,6.33
2018-03-18T16:20:57.811Z,5.80
2018-03-18T16:23:26.207Z,6.37
2018-03-18T16:25:54.542Z,6.67
2018-03-18T16:28:22.918Z,6.50
2018-03-18T16:31:04.073Z,5.70
2018-03-18T16:33:33.108Z,8.30
2018-03-18T16:36:01.461Z,7.40
2018-03-18T16:38:29.863Z,7.53
2018-03-18T16:40:58.238Z,6.47
2018-03-18T16:43:26.588Z,5.33
2018-03-18T16:45:54.947Z,5.60
2018-03-18T16:48:24.088Z,7.17
2018-03-18T16:50:52.474Z,5.43
2018-03-18T16:53:20.853Z,7.77
2018-03-18T16:55:49.244Z,6.30
2018-03-18T16:58:17.579Z,6.00
2018-03-18T17:00:45.940Z,5.60
2018-03-18T17:03:15.104Z,5.87
2018-03-18T17:05:43.489Z,4.90
2018-03-18T17:08:11.860Z,7.73
2018-03-18T17:10:40.219Z,4.27
2018-03-18T17:13:08.592Z,6.37
2018-03-18T17:15:36.974Z,9.20
2018-03-18T17:18:05.318Z,4.73
2018-03-18T17:20:33.766Z,8.60
2018-03-18T17:23:02.914Z,4.30
2018-03-18T17:25:31.255Z,6.90
2018-03-18T17:27:59.634Z,6.87
2018-03-18T17:30:27.992Z,6.70
2018-03-18T17:32:57.179Z,5.27
2018-03-18T17:35:25.539Z,4.70
2018-03-18T17:37:53.938Z,5.57
2018-03-18T17:40:23.092Z,7.60
2018-03-18T17:42:51.445Z,5.47
2018-03-18T17:45:31.641Z,5.77
2018-03-18T17:48:11.908Z,6.90
2018-03-18T17:53:54.873Z,6.63
2018-03-18T17:56:37.938Z,6.83
2018-03-18T17:59:06.274Z,6.93
2018-03-18T18:01:34.615Z,5.80
2018-03-18T18:04:02.988Z,6.93
2018-03-18T18:06:32.087Z,8.83
2018-03-18T18:09:00.452Z,6.80
2018-03-18T18:11:28.826Z,5.93
2018-03-18T18:13:57.530Z,6.23
2018-03-18T18:16:25.903Z,4.67
2018-03-18T18:18:54.250Z,6.33
2018-03-18T18:21:23.365Z,6.43
2018-03-18T18:23:51.730Z,7.20
2018-03-18T18:26:20.103Z,8.07
2018-03-18T18:28:49.208Z,8.80
2018-03-18T18:31:17.556Z,5.97
2018-03-18T18:33:45.915Z,6.20
2018-03-18T18:36:14.289Z,6.63
2018-03-18T18:38:42.670Z,6.27
2018-03-18T18:41:11.022Z,6.53
2018-03-18T18:43:39.363Z,6.23
2018-03-18T18:46:08.495Z,7.40
2018-03-18T18:48:36.848Z,5.17
2018-03-18T18:51:05.231Z,5.47
2018-03-18T18:53:33.577Z,7.50
2018-03-18T18:56:01.927Z,9.30
2018-03-18T18:58:30.278Z,6.30
2018-03-18T19:00:58.635Z,6.77
2018-03-18T19:03:27.009Z,5.27
2018-03-18T19:05:55.361Z,5.07
2018-03-18T19:08:23.737Z,7.70
2018-03-18T19:10:52.075Z,6.10
2018-03-18T19:13:21.312Z,7.30
2018-03-18T19:15:49.721Z,6.47
2018-03-18T19:18:18.063Z,4.83
2018-03-18T19:20:46.521Z,7.57
2018-03-18T19:23:14.860Z,6.10
2018-03-18T19:25:43.191Z,6.97
2018-03-18T19:28:11.594Z,6.23
2018-03-18T19:30:40.681Z,5.57
2018-03-18T19:33:09.784Z,7.37
2018-03-18T19:35:38.896Z,6.07
2018-03-18T19:38:07.275Z,6.30
2018-03-18T19:40:35.627Z,7.40
2018-03-18T19:43:05.636Z,7.57
2018-03-18T19:45:34.383Z,7.67
2018-03-18T19:48:02.767Z,6.60
2018-03-18T19:50:34.348Z,7.97
2018-03-18T19:53:02.773Z,7.50
2018-03-18T19:55:33.255Z,5.70
2018-03-18T19:58:04.710Z,7.83
2018-03-18T20:00:33.331Z,6.37
2018-03-18T20:03:01.694Z,6.53
2018-03-18T20:05:30.832Z,8.30
2018-03-18T20:07:59.196Z,5.37
2018-03-18T20:10:27.715Z,7.80
2018-03-18T20:12:56.475Z,6.53
2018-03-18T20:15:24.842Z,5.97
2018-03-18T20:17:54.507Z,9.03
2018-03-18T20:20:23.652Z,6.90
2018-03-18T20:22:53.481Z,7.50
2018-03-18T20:25:22.554Z,6.23
2018-03-18T20:27:51.587Z,7.53
2018-03-18T20:30:20.761Z,5.70
2018-03-18T20:32:49.121Z,5.70
2018-03-18T20:35:17.900Z,6.23
2018-03-18T20:37:47.091Z,8.57
2018-03-18T20:40:15.921Z,6.40
2018-03-18T20:42:44.305Z,8.27
2018-03-18T20:45:12.653Z,8.10
2018-03-18T20:47:40.991Z,6.07
2018-03-18T20:50:10.129Z,12.20
2018-03-18T20:52:38.473Z,5.53
2018-03-18T20:55:06.860Z,5.43
2018-03-18T20:57:35.224Z,11.23
2018-03-18T21:00:03.616Z,7.83
2018-03-18T21:02:31.996Z,6.97
2018-03-18T21:05:00.328Z,7.07
2018-03-18T21:07:28.749Z,9.43
2018-03-18T21:09:57.108Z,7.67
2018-03-18T21:12:26.216Z,5.43
2018-03-18T21:14:54.561Z,5.30
2018-03-18T21:17:22.976Z,6.93
2018-03-18T21:19:51.343Z,8.07
2018-03-18T21:22:19.772Z,7.67
2018-03-18T21:24:48.136Z,7.83
2018-03-18T21:27:16.484Z,8.33
2018-03-18T21:29:44.829Z,4.80
2018-03-18T21:32:13.248Z,6.37
2018-03-18T21:34:41.600Z,6.37
2018-03-18T21:37:10.006Z,5.80
2018-03-18T21:39:38.354Z,6.00
2018-03-18T21:42:07.615Z,5.63
2018-03-18T21:44:36.101Z,5.30
2018-03-18T21:47:04.456Z,8.10
2018-03-18T21:49:32.849Z,6.63
2018-03-18T21:52:01.199Z,8.03
2018-03-18T21:54:29.594Z,7.77
2018-03-18T21:56:58.503Z,6.43
2018-03-18T21:59:26.942Z,9.07
2018-03-18T22:01:55.273Z,5.97
2018-03-18T22:04:23.695Z,6.40
2018-03-18T22:06:52.053Z,6.57
2018-03-18T22:09:20.412Z,6.23
2018-03-18T22:11:48.790Z,6.60
2018-03-18T22:14:17.162Z,8.30
2018-03-18T22:16:45.550Z,7.73
2018-03-18T22:19:13.879Z,7.37
2018-03-18T22:21:42.246Z,8.87
2018-03-18T22:24:10.608Z,7.67
2018-03-18T22:26:38.923Z,7.50
2018-03-18T22:29:07.317Z,7.13
2018-03-18T22:31:35.959Z,6.73
2018-03-18T22:34:04.358Z,9.33
2018-03-18T22:36:32.695Z,5.73
2018-03-18T22:39:01.803Z,12.37
2018-03-18T22:41:31.505Z,7.53
2018-03-18T22:44:00.120Z,7.10
2018-03-18T22:46:30.406Z,7.30
2018-03-18T22:48:59.975Z,6.47
2018-03-18T22:51:28.296Z,8.57
2018-03-18T22:53:56.671Z,7.03
2018-03-18T22:56:25.067Z,7.80
2018-03-18T22:58:53.880Z,7.20
2018-03-18T23:01:22.217Z,6.90
2018-03-18T23:03:50.580Z,7.37
2018-03-18T23:06:19.664Z,8.43
2018-03-18T23:08:48.013Z,9.10
2018-03-18T23:11:16.385Z,7.83
2018-03-18T23:13:44.783Z,6.33
2018-03-18T23:16:13.119Z,7.30
2018-03-18T23:18:42.216Z,8.47
2018-03-18T23:21:11.312Z,9.83
2018-03-18T23:23:39.673Z,7.07
2018-03-18T23:26:08.022Z,8.93
2018-03-18T23:28:37.572Z,8.40
2018-03-18T23:31:07.238Z,6.33
2018-03-18T23:33:36.381Z,7.17
2018-03-18T23:36:04.751Z,8.50
2018-03-18T23:38:34.228Z,7.27
2018-03-18T23:41:03.360Z,6.33
2018-03-18T23:43:32.054Z,6.67
2018-03-18T23:46:00.402Z,9.00
2018-03-18T23:48:29.816Z,7.43
2018-03-18T23:51:00.266Z,8.63
2018-03-18T23:53:28.615Z,8.40
2018-03-18T23:55:56.970Z,8.90
2018-03-18T23:58:26.098Z,6.40
